sensor_id;sensor_type;location;lat;lon;timestamp;temperature;humidity
10390;DHT22;5241;47.830;12.972;2022-09-25T00:00:45;12.60;99.90
10390;DHT22;5241;47.830;12.972;2022-09-25T00:03:11;12.60;99.90
10390;DHT22;5241;47.830;12.972;2022-09-25T00:05:38;12.50;99.90
10390;DHT22;5241;47.830;12.972;2022-09-25T00:08:05;12.50;99.90
10390;DHT22;5241;47.830;12.972;2022-09-25T00:10:31;12.40;99.90
10390;DHT22;5241;47.830;12.972;2022-09-25T00:12:57;12.40;99.90
10390;DHT22;5241;47.830;12.972;2022-09-25T00:15:23;12.40;99.90
10390;DHT22;5241;47.830;12.972;2022-09-25T00:17:49;12.40;99.90
10390;DHT22;5241;47.830;12.972;2022-09-25T00:20:15;12.40;99.90
10390;DHT22;5241;47.830;12.972;2022-09-25T00:22:41;12.40;99.90
10390;DHT22;5241;47.830;12.972;2022-09-25T00:25:11;12.40;99.90
10390;DHT22;5241;47.830;12.972;2022-09-25T00:27:40;12.40;99.90
10390;DHT22;5241;47.830;12.972;2022-09-25T00:30:08;12.40;99.90
10390;DHT22;5241;47.830;12.972;2022-09-25T00:32:35;12.40;99.90
10390;DHT22;5241;47.830;12.972;2022-09-25T00:35:00;12.40;99.90
10390;DHT22;5241;47.830;12.972;2022-09-25T00:37:26;12.40;99.90
10390;DHT22;5241;47.830;12.972;2022-09-25T00:39:55;12.40;99.90
10390;DHT22;5241;47.830;12.972;2022-09-25T00:42:21;12.30;99.90
10390;DHT22;5241;47.830;12.972;2022-09-25T00:45:03;12.30;99.90
10390;DHT22;5241;47.830;12.972;2022-09-25T00:47:52;12.40;99.90
10390;DHT22;5241;47.830;12.972;2022-09-25T00:50:26;12.40;99.90
10390;DHT22;5241;47.830;12.972;2022-09-25T00:52:55;12.40;99.90
10390;DHT22;5241;47.830;12.972;2022-09-25T00:55:22;12.40;99.90
10390;DHT22;5241;47.830;12.972;2022-09-25T00:57:53;12.30;99.90
10390;DHT22;5241;47.830;12.972;2022-09-25T01:00:20;12.20;99.90
10390;DHT22;5241;47.830;12.972;2022-09-25T01:02:50;12.30;99.90
10390;DHT22;5241;47.830;12.972;2022-09-25T01:05:26;12.20;99.90
10390;DHT22;5241;47.830;12.972;2022-09-25T01:07:54;12.20;99.90
10390;DHT22;5241;47.830;12.972;2022-09-25T01:10:21;12.10;99.90
10390;DHT22;5241;47.830;12.972;2022-09-25T01:12:48;12.10;99.90
10390;DHT22;5241;47.830;12.972;2022-09-25T01:15:17;12.00;99.90
10390;DHT22;5241;47.830;12.972;2022-09-25T01:17:59;12.00;99.90
10390;DHT22;5241;47.830;12.972;2022-09-25T01:23:38;11.90;99.90
10390;DHT22;5241;47.830;12.972;2022-09-25T01:34:22;11.80;99.90
10390;DHT22;5241;47.830;12.972;2022-09-25T01:37:00;11.80;99.90
10390;DHT22;5241;47.830;12.972;2022-09-25T01:39:35;11.80;99.90
10390;DHT22;5241;47.830;12.972;2022-09-25T01:42:08;11.80;99.90
10390;DHT22;5241;47.830;12.972;2022-09-25T01:44:42;11.80;99.90
10390;DHT22;5241;47.830;12.972;2022-09-25T01:47:15;11.80;99.90
10390;DHT22;5241;47.830;12.972;2022-09-25T01:49:57;11.80;99.90
10390;DHT22;5241;47.830;12.972;2022-09-25T01:52:29;11.80;99.90
10390;DHT22;5241;47.830;12.972;2022-09-25T01:55:04;11.80;99.90
10390;DHT22;5241;47.830;12.972;2022-09-25T01:57:41;11.80;99.90
10390;DHT22;5241;47.830;12.972;2022-09-25T02:00:16;11.80;99.90
10390;DHT22;5241;47.830;12.972;2022-09-25T02:02:56;11.80;99.90
10390;DHT22;5241;47.830;12.972;2022-09-25T02:05:38;11.80;99.90
10390;DHT22;5241;47.830;12.972;2022-09-25T02:08:39;11.80;99.90
10390;DHT22;5241;47.830;12.972;2022-09-25T02:11:08;11.80;99.90
10390;DHT22;5241;47.830;12.972;2022-09-25T02:14:05;11.70;99.90
10390;DHT22;5241;47.830;12.972;2022-09-25T02:16:38;11.70;99.90
10390;DHT22;5241;47.830;12.972;2022-09-25T02:19:11;11.70;99.90
10390;DHT22;5241;47.830;12.972;2022-09-25T02:22:09;11.60;99.90
10390;DHT22;5241;47.830;12.972;2022-09-25T02:24:50;11.70;99.90
10390;DHT22;5241;47.830;12.972;2022-09-25T02:27:21;11.60;99.90
10390;DHT22;5241;47.830;12.972;2022-09-25T02:29:47;11.60;99.90
10390;DHT22;5241;47.830;12.972;2022-09-25T02:32:15;11.50;99.90
10390;DHT22;5241;47.830;12.972;2022-09-25T02:34:42;11.50;99.90
10390;DHT22;5241;47.830;12.972;2022-09-25T02:37:12;11.40;99.90
10390;DHT22;5241;47.830;12.972;2022-09-25T02:39:39;11.50;99.90
10390;DHT22;5241;47.830;12.972;2022-09-25T02:45:42;11.50;99.90
10390;DHT22;5241;47.830;12.972;2022-09-25T02:48:35;11.50;99.90
10390;DHT22;5241;47.830;12.972;2022-09-25T02:51:23;11.40;99.90
10390;DHT22;5241;47.830;12.972;2022-09-25T02:54:15;11.40;99.90
10390;DHT22;5241;47.830;12.972;2022-09-25T02:57:08;11.40;99.90
10390;DHT22;5241;47.830;12.972;2022-09-25T02:59:52;11.40;99.90
10390;DHT22;5241;47.830;12.972;2022-09-25T03:02:20;11.40;99.90
10390;DHT22;5241;47.830;12.972;2022-09-25T03:04:48;11.40;99.90
10390;DHT22;5241;47.830;12.972;2022-09-25T03:07:16;11.30;99.90
10390;DHT22;5241;47.830;12.972;2022-09-25T03:09:43;11.40;99.90
10390;DHT22;5241;47.830;12.972;2022-09-25T03:12:12;11.40;99.90
10390;DHT22;5241;47.830;12.972;2022-09-25T03:14:38;11.30;99.90
10390;DHT22;5241;47.830;12.972;2022-09-25T03:17:05;11.30;99.90
10390;DHT22;5241;47.830;12.972;2022-09-25T03:19:32;11.30;99.90
10390;DHT22;5241;47.830;12.972;2022-09-25T03:21:59;11.30;99.90
10390;DHT22;5241;47.830;12.972;2022-09-25T03:24:25;11.30;99.90
10390;DHT22;5241;47.830;12.972;2022-09-25T03:26:51;11.30;99.90
10390;DHT22;5241;47.830;12.972;2022-09-25T03:29:18;11.30;99.90
10390;DHT22;5241;47.830;12.972;2022-09-25T03:31:43;11.30;99.90
10390;DHT22;5241;47.830;12.972;2022-09-25T03:34:10;11.30;99.90
10390;DHT22;5241;47.830;12.972;2022-09-25T03:36:37;11.30;99.90
10390;DHT22;5241;47.830;12.972;2022-09-25T03:39:03;11.30;99.90
10390;DHT22;5241;47.830;12.972;2022-09-25T03:41:31;11.30;99.90
10390;DHT22;5241;47.830;12.972;2022-09-25T03:43:57;11.30;99.90
10390;DHT22;5241;47.830;12.972;2022-09-25T03:46:25;11.30;99.90
10390;DHT22;5241;47.830;12.972;2022-09-25T03:48:52;11.30;99.90
10390;DHT22;5241;47.830;12.972;2022-09-25T03:51:18;11.30;99.90
10390;DHT22;5241;47.830;12.972;2022-09-25T03:53:45;11.40;99.90
10390;DHT22;5241;47.830;12.972;2022-09-25T03:56:22;11.40;99.90
10390;DHT22;5241;47.830;12.972;2022-09-25T03:58:51;11.40;99.90
10390;DHT22;5241;47.830;12.972;2022-09-25T04:01:18;11.40;99.90
10390;DHT22;5241;47.830;12.972;2022-09-25T04:03:44;11.40;99.90
10390;DHT22;5241;47.830;12.972;2022-09-25T04:06:13;11.30;99.90
10390;DHT22;5241;47.830;12.972;2022-09-25T04:08:39;11.40;99.90
10390;DHT22;5241;47.830;12.972;2022-09-25T04:11:05;11.40;99.90
10390;DHT22;5241;47.830;12.972;2022-09-25T04:13:33;11.30;99.90
10390;DHT22;5241;47.830;12.972;2022-09-25T04:16:00;11.30;99.90
10390;DHT22;5241;47.830;12.972;2022-09-25T04:18:26;11.40;99.90
10390;DHT22;5241;47.830;12.972;2022-09-25T04:21:00;11.40;99.90
10390;DHT22;5241;47.830;12.972;2022-09-25T04:23:26;11.40;99.90
10390;DHT22;5241;47.830;12.972;2022-09-25T04:25:52;11.40;99.90
10390;DHT22;5241;47.830;12.972;2022-09-25T04:28:19;11.40;99.90
10390;DHT22;5241;47.830;12.972;2022-09-25T04:30:46;11.40;99.90
10390;DHT22;5241;47.830;12.972;2022-09-25T04:33:12;11.40;99.90
10390;DHT22;5241;47.830;12.972;2022-09-25T04:35:56;11.30;99.90
10390;DHT22;5241;47.830;12.972;2022-09-25T04:38:22;11.40;99.90
10390;DHT22;5241;47.830;12.972;2022-09-25T04:40:48;11.40;99.90
10390;DHT22;5241;47.830;12.972;2022-09-25T04:43:13;11.40;99.90
10390;DHT22;5241;47.830;12.972;2022-09-25T04:45:39;11.30;99.90
10390;DHT22;5241;47.830;12.972;2022-09-25T04:48:05;11.30;99.90
10390;DHT22;5241;47.830;12.972;2022-09-25T04:50:31;11.30;99.90
10390;DHT22;5241;47.830;12.972;2022-09-25T04:52:58;11.40;99.90
10390;DHT22;5241;47.830;12.972;2022-09-25T04:55:24;11.40;99.90
10390;DHT22;5241;47.830;12.972;2022-09-25T04:57:51;11.30;99.90
10390;DHT22;5241;47.830;12.972;2022-09-25T05:00:18;11.30;99.90
10390;DHT22;5241;47.830;12.972;2022-09-25T05:02:45;11.40;99.90
10390;DHT22;5241;47.830;12.972;2022-09-25T05:05:10;11.30;99.90
10390;DHT22;5241;47.830;12.972;2022-09-25T05:07:36;11.30;99.90
10390;DHT22;5241;47.830;12.972;2022-09-25T05:10:01;11.30;99.90
10390;DHT22;5241;47.830;12.972;2022-09-25T05:12:27;11.40;99.90
10390;DHT22;5241;47.830;12.972;2022-09-25T05:14:52;11.40;99.90
10390;DHT22;5241;47.830;12.972;2022-09-25T05:17:18;11.40;99.90
10390;DHT22;5241;47.830;12.972;2022-09-25T05:19:43;11.50;99.90
10390;DHT22;5241;47.830;12.972;2022-09-25T05:22:09;11.50;99.90
10390;DHT22;5241;47.830;12.972;2022-09-25T05:24:34;11.60;99.90
10390;DHT22;5241;47.830;12.972;2022-09-25T05:27:00;11.60;99.90
10390;DHT22;5241;47.830;12.972;2022-09-25T05:29:25;11.60;99.90
10390;DHT22;5241;47.830;12.972;2022-09-25T05:31:51;11.60;99.90
10390;DHT22;5241;47.830;12.972;2022-09-25T05:34:16;11.60;99.90
10390;DHT22;5241;47.830;12.972;2022-09-25T05:36:42;11.70;99.90
10390;DHT22;5241;47.830;12.972;2022-09-25T05:39:11;11.70;99.90
10390;DHT22;5241;47.830;12.972;2022-09-25T05:41:36;11.70;99.90
10390;DHT22;5241;47.830;12.972;2022-09-25T05:44:02;11.80;99.90
10390;DHT22;5241;47.830;12.972;2022-09-25T05:46:37;11.80;99.90
10390;DHT22;5241;47.830;12.972;2022-09-25T05:49:03;11.90;99.90
10390;DHT22;5241;47.830;12.972;2022-09-25T05:51:29;11.90;99.90
10390;DHT22;5241;47.830;12.972;2022-09-25T05:53:54;11.90;99.90
10390;DHT22;5241;47.830;12.972;2022-09-25T05:56:20;11.90;99.90
10390;DHT22;5241;47.830;12.972;2022-09-25T05:58:46;11.90;99.90
10390;DHT22;5241;47.830;12.972;2022-09-25T06:01:13;12.00;99.90
10390;DHT22;5241;47.830;12.972;2022-09-25T06:03:39;12.00;99.90
10390;DHT22;5241;47.830;12.972;2022-09-25T06:06:05;12.00;99.90
10390;DHT22;5241;47.830;12.972;2022-09-25T06:08:31;12.00;99.90
10390;DHT22;5241;47.830;12.972;2022-09-25T06:10:57;12.00;99.90
10390;DHT22;5241;47.830;12.972;2022-09-25T06:13:23;12.00;99.90
10390;DHT22;5241;47.830;12.972;2022-09-25T06:15:52;12.00;99.90
10390;DHT22;5241;47.830;12.972;2022-09-25T06:18:19;12.00;99.90
10390;DHT22;5241;47.830;12.972;2022-09-25T06:20:46;12.00;99.90
10390;DHT22;5241;47.830;12.972;2022-09-25T06:23:11;12.10;99.90
10390;DHT22;5241;47.830;12.972;2022-09-25T06:25:37;12.20;99.90
10390;DHT22;5241;47.830;12.972;2022-09-25T06:28:03;12.30;99.90
10390;DHT22;5241;47.830;12.972;2022-09-25T06:30:31;12.40;99.90
10390;DHT22;5241;47.830;12.972;2022-09-25T06:33:18;12.60;99.90
10390;DHT22;5241;47.830;12.972;2022-09-25T06:35:47;12.50;99.90
10390;DHT22;5241;47.830;12.972;2022-09-25T06:38:14;12.60;99.90
10390;DHT22;5241;47.830;12.972;2022-09-25T06:40:41;12.60;99.90
10390;DHT22;5241;47.830;12.972;2022-09-25T06:43:09;12.70;99.90
10390;DHT22;5241;47.830;12.972;2022-09-25T06:45:35;12.60;99.90
10390;DHT22;5241;47.830;12.972;2022-09-25T06:48:05;12.60;99.90
10390;DHT22;5241;47.830;12.972;2022-09-25T06:50:41;12.70;99.90
10390;DHT22;5241;47.830;12.972;2022-09-25T06:53:08;12.70;99.90
10390;DHT22;5241;47.830;12.972;2022-09-25T06:55:34;12.80;99.90
10390;DHT22;5241;47.830;12.972;2022-09-25T06:58:00;12.80;99.90
10390;DHT22;5241;47.830;12.972;2022-09-25T07:00:26;12.80;99.90
10390;DHT22;5241;47.830;12.972;2022-09-25T07:02:51;12.80;99.90
10390;DHT22;5241;47.830;12.972;2022-09-25T07:05:36;12.80;99.90
10390;DHT22;5241;47.830;12.972;2022-09-25T07:08:01;12.80;99.90
10390;DHT22;5241;47.830;12.972;2022-09-25T07:10:28;12.80;99.90
10390;DHT22;5241;47.830;12.972;2022-09-25T07:12:53;12.90;99.90
10390;DHT22;5241;47.830;12.972;2022-09-25T07:15:19;12.90;99.90
10390;DHT22;5241;47.830;12.972;2022-09-25T07:17:44;12.70;99.90
10390;DHT22;5241;47.830;12.972;2022-09-25T07:20:11;12.90;99.90
10390;DHT22;5241;47.830;12.972;2022-09-25T07:22:40;13.10;99.90
10390;DHT22;5241;47.830;12.972;2022-09-25T07:25:06;13.10;99.90
10390;DHT22;5241;47.830;12.972;2022-09-25T07:27:32;13.10;99.90
10390;DHT22;5241;47.830;12.972;2022-09-25T07:29:57;13.20;99.90
10390;DHT22;5241;47.830;12.972;2022-09-25T07:32:23;13.20;99.90
10390;DHT22;5241;47.830;12.972;2022-09-25T07:34:48;13.30;99.90
10390;DHT22;5241;47.830;12.972;2022-09-25T07:37:15;13.10;99.90
10390;DHT22;5241;47.830;12.972;2022-09-25T07:39:41;13.10;99.90
10390;DHT22;5241;47.830;12.972;2022-09-25T07:42:06;13.10;99.90
10390;DHT22;5241;47.830;12.972;2022-09-25T07:44:32;13.30;99.90
10390;DHT22;5241;47.830;12.972;2022-09-25T07:46:58;13.40;99.90
10390;DHT22;5241;47.830;12.972;2022-09-25T07:49:25;13.50;99.90
10390;DHT22;5241;47.830;12.972;2022-09-25T07:51:51;13.60;99.90
10390;DHT22;5241;47.830;12.972;2022-09-25T07:54:18;13.70;99.90
10390;DHT22;5241;47.830;12.972;2022-09-25T07:56:43;13.70;99.90
10390;DHT22;5241;47.830;12.972;2022-09-25T07:59:09;13.60;99.90
10390;DHT22;5241;47.830;12.972;2022-09-25T08:01:34;13.70;99.90
10390;DHT22;5241;47.830;12.972;2022-09-25T08:04:00;13.80;99.90
10390;DHT22;5241;47.830;12.972;2022-09-25T08:06:25;13.80;99.90
10390;DHT22;5241;47.830;12.972;2022-09-25T08:08:51;13.60;99.90
10390;DHT22;5241;47.830;12.972;2022-09-25T08:11:17;13.50;99.90
10390;DHT22;5241;47.830;12.972;2022-09-25T08:13:43;13.60;99.90
10390;DHT22;5241;47.830;12.972;2022-09-25T08:16:12;13.60;99.90
10390;DHT22;5241;47.830;12.972;2022-09-25T08:18:42;13.70;99.90
10390;DHT22;5241;47.830;12.972;2022-09-25T08:21:09;13.90;99.90
10390;DHT22;5241;47.830;12.972;2022-09-25T08:23:35;14.10;99.90
10390;DHT22;5241;47.830;12.972;2022-09-25T08:26:01;14.20;99.90
10390;DHT22;5241;47.830;12.972;2022-09-25T08:28:27;14.20;99.90
10390;DHT22;5241;47.830;12.972;2022-09-25T08:30:53;14.50;99.90
10390;DHT22;5241;47.830;12.972;2022-09-25T08:33:19;14.40;99.90
10390;DHT22;5241;47.830;12.972;2022-09-25T08:35:57;14.50;99.90
10390;DHT22;5241;47.830;12.972;2022-09-25T08:38:22;14.90;99.90
10390;DHT22;5241;47.830;12.972;2022-09-25T08:43:23;15.80;99.90
10390;DHT22;5241;47.830;12.972;2022-09-25T08:45:50;16.00;99.90
10390;DHT22;5241;47.830;12.972;2022-09-25T08:48:53;16.00;99.90
10390;DHT22;5241;47.830;12.972;2022-09-25T08:51:43;16.20;99.90
10390;DHT22;5241;47.830;12.972;2022-09-25T08:54:24;16.30;99.90
10390;DHT22;5241;47.830;12.972;2022-09-25T08:56:52;16.40;99.90
10390;DHT22;5241;47.830;12.972;2022-09-25T08:59:33;16.40;99.90
10390;DHT22;5241;47.830;12.972;2022-09-25T09:02:16;16.20;99.90
10390;DHT22;5241;47.830;12.972;2022-09-25T09:04:49;15.90;99.90
10390;DHT22;5241;47.830;12.972;2022-09-25T09:07:36;15.90;99.90
10390;DHT22;5241;47.830;12.972;2022-09-25T09:12:38;15.60;99.90
10390;DHT22;5241;47.830;12.972;2022-09-25T09:17:43;16.80;99.90
10390;DHT22;5241;47.830;12.972;2022-09-25T09:20:23;16.60;99.90
10390;DHT22;5241;47.830;12.972;2022-09-25T09:22:51;16.60;99.90
10390;DHT22;5241;47.830;12.972;2022-09-25T09:25:59;16.20;99.90
10390;DHT22;5241;47.830;12.972;2022-09-25T09:28:31;16.20;99.90
10390;DHT22;5241;47.830;12.972;2022-09-25T09:31:12;16.30;99.90
10390;DHT22;5241;47.830;12.972;2022-09-25T09:36:24;17.30;99.90
10390;DHT22;5241;47.830;12.972;2022-09-25T09:39:07;17.60;99.90
10390;DHT22;5241;47.830;12.972;2022-09-25T09:52:34;17.70;99.90
10390;DHT22;5241;47.830;12.972;2022-09-25T09:55:24;17.70;99.90
10390;DHT22;5241;47.830;12.972;2022-09-25T09:57:53;17.70;99.90
10390;DHT22;5241;47.830;12.972;2022-09-25T10:00:21;17.90;99.90
10390;DHT22;5241;47.830;12.972;2022-09-25T10:05:41;17.70;99.90
10390;DHT22;5241;47.830;12.972;2022-09-25T10:08:11;17.70;99.90
10390;DHT22;5241;47.830;12.972;2022-09-25T10:10:39;18.20;99.90
10390;DHT22;5241;47.830;12.972;2022-09-25T10:13:31;18.60;99.90
10390;DHT22;5241;47.830;12.972;2022-09-25T10:16:16;18.50;99.90
10390;DHT22;5241;47.830;12.972;2022-09-25T10:19:09;18.60;99.90
10390;DHT22;5241;47.830;12.972;2022-09-25T10:21:39;18.90;99.90
10390;DHT22;5241;47.830;12.972;2022-09-25T10:24:05;19.00;99.90
10390;DHT22;5241;47.830;12.972;2022-09-25T10:26:38;19.10;99.90
10390;DHT22;5241;47.830;12.972;2022-09-25T10:29:24;19.20;99.90
10390;DHT22;5241;47.830;12.972;2022-09-25T10:31:58;19.60;99.90
10390;DHT22;5241;47.830;12.972;2022-09-25T10:34:26;19.10;99.90
10390;DHT22;5241;47.830;12.972;2022-09-25T10:36:54;18.70;99.90
10390;DHT22;5241;47.830;12.972;2022-09-25T10:39:36;19.10;99.90
10390;DHT22;5241;47.830;12.972;2022-09-25T10:44:57;19.70;99.90
10390;DHT22;5241;47.830;12.972;2022-09-25T10:50:20;19.10;99.90
10390;DHT22;5241;47.830;12.972;2022-09-25T10:52:48;19.30;99.90
10390;DHT22;5241;47.830;12.972;2022-09-25T10:55:21;19.40;99.90
10390;DHT22;5241;47.830;12.972;2022-09-25T11:00:28;18.90;99.90
10390;DHT22;5241;47.830;12.972;2022-09-25T11:03:00;18.00;99.90
10390;DHT22;5241;47.830;12.972;2022-09-25T11:05:33;17.60;99.90
10390;DHT22;5241;47.830;12.972;2022-09-25T11:08:02;17.50;99.90
10390;DHT22;5241;47.830;12.972;2022-09-25T11:10:33;17.30;99.90
10390;DHT22;5241;47.830;12.972;2022-09-25T11:13:03;17.20;99.90
10390;DHT22;5241;47.830;12.972;2022-09-25T11:15:32;17.10;99.90
10390;DHT22;5241;47.830;12.972;2022-09-25T11:18:03;17.10;99.90
10390;DHT22;5241;47.830;12.972;2022-09-25T11:20:31;16.90;99.90
10390;DHT22;5241;47.830;12.972;2022-09-25T11:28:38;17.00;99.90
10390;DHT22;5241;47.830;12.972;2022-09-25T11:31:25;17.00;99.90
10390;DHT22;5241;47.830;12.972;2022-09-25T11:34:00;16.70;99.90
10390;DHT22;5241;47.830;12.972;2022-09-25T11:36:52;16.80;99.90
10390;DHT22;5241;47.830;12.972;2022-09-25T11:39:33;16.70;99.90
10390;DHT22;5241;47.830;12.972;2022-09-25T11:51:13;16.70;99.90
10390;DHT22;5241;47.830;12.972;2022-09-25T11:54:03;16.60;99.90
10390;DHT22;5241;47.830;12.972;2022-09-25T11:57:10;16.60;99.90
10390;DHT22;5241;47.830;12.972;2022-09-25T12:05:23;16.80;99.90
10390;DHT22;5241;47.830;12.972;2022-09-25T12:10:36;16.60;99.90
10390;DHT22;5241;47.830;12.972;2022-09-25T12:16:05;16.60;99.90
10390;DHT22;5241;47.830;12.972;2022-09-25T12:21:26;16.40;99.90
10390;DHT22;5241;47.830;12.972;2022-09-25T12:24:17;16.60;99.90
10390;DHT22;5241;47.830;12.972;2022-09-25T12:26:50;16.70;99.90
10390;DHT22;5241;47.830;12.972;2022-09-25T12:29:34;16.90;99.90
10390;DHT22;5241;47.830;12.972;2022-09-25T12:37:40;17.40;99.90
10390;DHT22;5241;47.830;12.972;2022-09-25T12:40:31;17.50;99.90
10390;DHT22;5241;47.830;12.972;2022-09-25T12:43:08;17.50;99.90
10390;DHT22;5241;47.830;12.972;2022-09-25T12:45:48;17.30;99.90
10390;DHT22;5241;47.830;12.972;2022-09-25T12:51:11;17.30;99.90
10390;DHT22;5241;47.830;12.972;2022-09-25T12:53:48;17.30;99.90
10390;DHT22;5241;47.830;12.972;2022-09-25T12:56:21;17.40;99.90
10390;DHT22;5241;47.830;12.972;2022-09-25T12:59:10;17.60;99.90
10390;DHT22;5241;47.830;12.972;2022-09-25T13:02:03;17.90;99.90
10390;DHT22;5241;47.830;12.972;2022-09-25T13:07:10;17.50;99.90
10390;DHT22;5241;47.830;12.972;2022-09-25T13:09:42;17.30;99.90
10390;DHT22;5241;47.830;12.972;2022-09-25T13:15:14;17.30;99.90
10390;DHT22;5241;47.830;12.972;2022-09-25T13:17:38;17.20;99.90
10390;DHT22;5241;47.830;12.972;2022-09-25T13:25:23;17.20;99.90
10390;DHT22;5241;47.830;12.972;2022-09-25T13:27:50;17.10;99.90
10390;DHT22;5241;47.830;12.972;2022-09-25T13:30:26;17.10;99.90
10390;DHT22;5241;47.830;12.972;2022-09-25T13:32:55;16.90;99.90
10390;DHT22;5241;47.830;12.972;2022-09-25T13:35:23;17.00;99.90
10390;DHT22;5241;47.830;12.972;2022-09-25T13:37:52;17.00;99.90
10390;DHT22;5241;47.830;12.972;2022-09-25T13:40:23;17.00;99.90
10390;DHT22;5241;47.830;12.972;2022-09-25T13:43:18;17.00;99.90
10390;DHT22;5241;47.830;12.972;2022-09-25T13:48:46;17.10;99.90
10390;DHT22;5241;47.830;12.972;2022-09-25T13:54:00;16.70;99.90
10390;DHT22;5241;47.830;12.972;2022-09-25T14:01:40;16.60;99.90
10390;DHT22;5241;47.830;12.972;2022-09-25T14:04:28;16.60;99.90
10390;DHT22;5241;47.830;12.972;2022-09-25T14:07:22;16.60;99.90
10390;DHT22;5241;47.830;12.972;2022-09-25T14:09:52;16.50;99.90
10390;DHT22;5241;47.830;12.972;2022-09-25T14:12:31;16.40;99.90
10390;DHT22;5241;47.830;12.972;2022-09-25T14:17:41;16.20;99.90
10390;DHT22;5241;47.830;12.972;2022-09-25T14:20:22;16.10;99.90
10390;DHT22;5241;47.830;12.972;2022-09-25T14:22:55;15.90;99.90
10390;DHT22;5241;47.830;12.972;2022-09-25T14:25:33;15.70;99.90
10390;DHT22;5241;47.830;12.972;2022-09-25T14:28:01;15.60;99.90
10390;DHT22;5241;47.830;12.972;2022-09-25T14:30:28;15.40;99.90
10390;DHT22;5241;47.830;12.972;2022-09-25T14:33:10;15.40;99.90
10390;DHT22;5241;47.830;12.972;2022-09-25T14:35:55;15.30;99.90
10390;DHT22;5241;47.830;12.972;2022-09-25T14:41:49;15.10;99.90
10390;DHT22;5241;47.830;12.972;2022-09-25T14:46:57;15.00;99.90
10390;DHT22;5241;47.830;12.972;2022-09-25T14:49:32;15.00;99.90
10390;DHT22;5241;47.830;12.972;2022-09-25T14:52:05;14.90;99.90
10390;DHT22;5241;47.830;12.972;2022-09-25T14:54:34;15.00;99.90
10390;DHT22;5241;47.830;12.972;2022-09-25T14:57:02;15.00;99.90
10390;DHT22;5241;47.830;12.972;2022-09-25T15:04:48;15.10;99.90
10390;DHT22;5241;47.830;12.972;2022-09-25T15:07:17;15.20;99.90
10390;DHT22;5241;47.830;12.972;2022-09-25T15:09:47;15.10;99.90
10390;DHT22;5241;47.830;12.972;2022-09-25T15:15:03;15.20;99.90
10390;DHT22;5241;47.830;12.972;2022-09-25T15:17:31;15.00;99.90
10390;DHT22;5241;47.830;12.972;2022-09-25T15:20:02;15.10;99.90
10390;DHT22;5241;47.830;12.972;2022-09-25T15:22:35;15.00;99.90
10390;DHT22;5241;47.830;12.972;2022-09-25T15:25:05;14.90;99.90
10390;DHT22;5241;47.830;12.972;2022-09-25T15:27:32;14.80;99.90
10390;DHT22;5241;47.830;12.972;2022-09-25T15:29:59;14.80;99.90
10390;DHT22;5241;47.830;12.972;2022-09-25T15:32:37;14.70;99.90
10390;DHT22;5241;47.830;12.972;2022-09-25T15:35:14;14.70;99.90
10390;DHT22;5241;47.830;12.972;2022-09-25T15:37:42;14.60;99.90
10390;DHT22;5241;47.830;12.972;2022-09-25T15:40:24;14.60;99.90
10390;DHT22;5241;47.830;12.972;2022-09-25T15:42:52;14.60;99.90
10390;DHT22;5241;47.830;12.972;2022-09-25T15:48:09;14.50;99.90
10390;DHT22;5241;47.830;12.972;2022-09-25T15:50:35;14.40;99.90
10390;DHT22;5241;47.830;12.972;2022-09-25T15:53:01;14.30;99.90
10390;DHT22;5241;47.830;12.972;2022-09-25T15:55:28;14.30;99.90
10390;DHT22;5241;47.830;12.972;2022-09-25T15:58:03;14.30;99.90
10390;DHT22;5241;47.830;12.972;2022-09-25T16:00:30;14.20;99.90
10390;DHT22;5241;47.830;12.972;2022-09-25T16:03:25;14.10;99.90
10390;DHT22;5241;47.830;12.972;2022-09-25T16:06:15;14.10;99.90
10390;DHT22;5241;47.830;12.972;2022-09-25T16:08:41;14.10;99.90
10390;DHT22;5241;47.830;12.972;2022-09-25T16:11:17;14.00;99.90
10390;DHT22;5241;47.830;12.972;2022-09-25T16:13:47;14.00;99.90
10390;DHT22;5241;47.830;12.972;2022-09-25T16:16:26;14.00;99.90
10390;DHT22;5241;47.830;12.972;2022-09-25T16:18:59;13.90;99.90
10390;DHT22;5241;47.830;12.972;2022-09-25T16:21:41;13.80;99.90
10390;DHT22;5241;47.830;12.972;2022-09-25T16:24:10;13.60;99.90
10390;DHT22;5241;47.830;12.972;2022-09-25T16:26:42;13.50;99.90
10390;DHT22;5241;47.830;12.972;2022-09-25T16:31:41;13.40;99.90
10390;DHT22;5241;47.830;12.972;2022-09-25T16:34:19;13.30;99.90
10390;DHT22;5241;47.830;12.972;2022-09-25T16:36:50;13.30;99.90
10390;DHT22;5241;47.830;12.972;2022-09-25T16:39:32;13.30;99.90
10390;DHT22;5241;47.830;12.972;2022-09-25T16:41:59;13.30;99.90
10390;DHT22;5241;47.830;12.972;2022-09-25T16:44:45;13.30;99.90
10390;DHT22;5241;47.830;12.972;2022-09-25T16:47:18;13.30;99.90
10390;DHT22;5241;47.830;12.972;2022-09-25T16:49:45;13.30;99.90
10390;DHT22;5241;47.830;12.972;2022-09-25T16:52:21;13.30;99.90
10390;DHT22;5241;47.830;12.972;2022-09-25T16:54:49;13.20;99.90
10390;DHT22;5241;47.830;12.972;2022-09-25T16:57:18;13.20;99.90
10390;DHT22;5241;47.830;12.972;2022-09-25T16:59:44;13.20;99.90
10390;DHT22;5241;47.830;12.972;2022-09-25T17:02:21;13.20;99.90
10390;DHT22;5241;47.830;12.972;2022-09-25T17:04:47;13.30;99.90
10390;DHT22;5241;47.830;12.972;2022-09-25T17:07:15;13.20;99.90
10390;DHT22;5241;47.830;12.972;2022-09-25T17:09:40;13.10;99.90
10390;DHT22;5241;47.830;12.972;2022-09-25T17:12:12;13.00;99.90
10390;DHT22;5241;47.830;12.972;2022-09-25T17:14:41;13.00;99.90
10390;DHT22;5241;47.830;12.972;2022-09-25T17:17:08;13.00;99.90
10390;DHT22;5241;47.830;12.972;2022-09-25T17:19:34;12.90;99.90
10390;DHT22;5241;47.830;12.972;2022-09-25T17:21:59;12.90;99.90
10390;DHT22;5241;47.830;12.972;2022-09-25T17:24:26;12.80;99.90
10390;DHT22;5241;47.830;12.972;2022-09-25T17:26:52;12.80;99.90
10390;DHT22;5241;47.830;12.972;2022-09-25T17:29:19;12.70;99.90
10390;DHT22;5241;47.830;12.972;2022-09-25T17:31:44;12.70;99.90
10390;DHT22;5241;47.830;12.972;2022-09-25T17:34:22;12.70;99.90
10390;DHT22;5241;47.830;12.972;2022-09-25T17:36:53;12.70;99.90
10390;DHT22;5241;47.830;12.972;2022-09-25T17:39:19;12.70;99.90
10390;DHT22;5241;47.830;12.972;2022-09-25T17:41:45;12.70;99.90
10390;DHT22;5241;47.830;12.972;2022-09-25T17:44:14;12.70;99.90
10390;DHT22;5241;47.830;12.972;2022-09-25T17:46:41;12.70;99.90
10390;DHT22;5241;47.830;12.972;2022-09-25T17:49:07;12.80;99.90
10390;DHT22;5241;47.830;12.972;2022-09-25T17:51:32;12.80;99.90
10390;DHT22;5241;47.830;12.972;2022-09-25T17:53:58;12.80;99.90
10390;DHT22;5241;47.830;12.972;2022-09-25T17:56:26;12.80;99.90
10390;DHT22;5241;47.830;12.972;2022-09-25T17:58:56;12.80;99.90
10390;DHT22;5241;47.830;12.972;2022-09-25T18:01:25;12.70;99.90
10390;DHT22;5241;47.830;12.972;2022-09-25T18:03:55;12.80;99.90